KDTL/DTL METAR and TAF weather

Enter ICAO airport designator
Station Type Date Time Source
KDTL METAR 2018/12/10 17:15 UTC NOAA

KDTL 101715Z AUTO 25006KT 10SM CLR M01/M07 A2999 RMK AO2


Station Type Date Time Source
KDTL Decoded METAR 2018/12/10 17:15 UTC NOAA

Detroit Lakes, Detroit Lakes Airport-Wething Field, MN, United States (KDTL) 46-50N 095-53W
Dec 10, 2018 - 12:15 PM EST / 2018.12.10 1715 UTC
Wind: from the WSW (250 degrees) at 7 MPH (6 KT):0
Visibility: 10 mile(s):0
Sky conditions: clear
Temperature: 30 F (-1 C)
Windchill: 23 F (-5 C):1
Dew Point: 19 F (-7 C)
Relative Humidity: 63%
Pressure (altimeter): 29.99 in. Hg (1015 hPa)
ob: KDTL 101715Z AUTO 25006KT 10SM CLR M01/M07 A2999 RMK AO2
cycle: 17

Station Type Date Time Source
KDTL TAF UTC NOAA

Error!


Example: see airport list